Nearby METAR Reports

 

KMTN - Baltimore/Martin, Maryland, USA
Distance from station: SSE 8mi, 13km
Updated: Fri, 22-Aug-2014 3:36am EDT
Fog, Overcast
Fog, Overcast
 Wind from calm
Wind: Calm
Temperature: 72°F , 22°C
Dew Point: 72°F , 22°C
Humidity: 100%
Barometer: 29.97 inHg , 1014.9 hPa
Summary: Fog
Clouds: Overcast
Visibility: 1/2 mile , 2 km
Cloud details: Overcast 100 ft
2014/08/22 07:36 KMTN 220736Z AUTO 00000KT 1/2SM FG OVC001 22/22 A2997 RMK AO2 LTG DSNT NE
KDMH - Baltimore/Dwntwn, Maryland, USA
Distance from station: SW 12mi, 19km
Updated: Fri, 22-Aug-2014 2:54am EDT

 
Temperature: 75°F , 24°C
Dew Point: 68°F , 20°C
Humidity: 78%
Barometer: 29.96 inHg , 1014.6 hPa
2014/08/22 06:54 KDMH 220654Z AUTO 24/20 A2996 RMK AO1 SLP143 T02390200
 
KBWI - Balto/Wash Intl, Maryland, USA
Distance from station: SSW 20mi, 33km
Updated: Fri, 22-Aug-2014 2:54am EDT
Partly cloudy
Partly cloudy
 Wind from calm
Wind: Calm
Temperature: 72°F , 22°C
Dew Point: 68°F , 20°C
Humidity: 88%
Barometer: 29.95 inHg , 1014.2 hPa
Clouds: Partly cloudy
Visibility: 7 miles , 11 km
Cloud details: Partly cloudy 25000 ft
2014/08/22 06:54 KBWI 220654Z 00000KT 7SM SCT250 22/20 A2995 RMK AO2 SLP141 T02170200
KDMW - Carroll Cnty, Maryland, USA
Distance from station: WNW 30mi, 48km
Updated: Fri, 22-Aug-2014 3:35am EDT
Partly cloudy
Partly cloudy
 Wind from calm
Wind: Calm
Temperature: 68°F , 20°C
Dew Point: 66°F , 19°C
Humidity: 94%
Barometer: 29.99 inHg , 1015.6 hPa
Clouds: Partly cloudy
Visibility: 7 miles , 11 km
Cloud details: Partly cloudy 9000 ft
2014/08/22 07:35 KDMW 220735Z AUTO 00000KT 7SM SCT090 20/19 A2999 RMK AO2 LTG DSNT NE
 
KNAK - Annapolis/Naval, Maryland, USA
Distance from station: S 30mi, 48km
Updated: Fri, 22-Aug-2014 2:54am EDT
Clear
Clear
 Wind from WSW
Wind: WSW 3 mph , 6 km/h
Temperature: 73°F , 23°C
Dew Point: 70°F , 21°C
Humidity: 89%
Barometer: 29.95 inHg , 1014.2 hPa
Clouds: Clear
Visibility: 8 miles , 13 km
2014/08/22 06:54 KNAK 220654Z AUTO 25003KT 8SM CLR 23/21 A2995 RMK AO2 SLP142 T02330211
KW29 - Stevensville, Maryland, USA
Distance from station: SSE 31mi, 50km
Updated: Fri, 22-Aug-2014 3:38am EDT

 Wind from W
Wind: W 7 mph , 11 km/h
Temperature: 75°F , 24°C
Dew Point: 68°F , 20°C
Humidity: 78%
Barometer: 29.95 inHg , 1014.2 hPa
Visibility: 10 miles , 16 km
2014/08/22 07:38 KW29 220738Z AUTO 27006KT 10SM 24/20 A2995 RMK AO1
 
KCGS - College Park, Maryland, USA
Distance from station: SW 38mi, 61km
Updated: Fri, 22-Aug-2014 3:35am EDT
Clear
Clear
 Wind from calm
Wind: Calm
Temperature: 73°F , 23°C
Dew Point: 70°F , 21°C
Humidity: 89%
Barometer: 29.96 inHg , 1014.6 hPa
Clouds: Clear
Visibility: 10 miles , 16 km
2014/08/22 07:35 KCGS 220735Z AUTO 00000KT 10SM CLR 23/21 A2996 RMK AO1
KGAI - Gaithersburg, Maryland, USA
Distance from station: WSW 40mi, 65km
Updated: Fri, 22-Aug-2014 3:35am EDT
Clear
Clear
 Wind from calm
Wind: Calm
Temperature: 68°F , 20°C
Dew Point: 66°F , 19°C
Humidity: 94%
Barometer: 30.01 inHg , 1016.3 hPa
Clouds: Clear
Visibility: 5 miles , 8 km
2014/08/22 07:35 KGAI 220735Z AUTO 00000KT 5SM CLR 20/19 A3001 RMK AO1
 
KTHV - York, Pennsylvania, USA
Distance from station: NNW 40mi, 65km
Updated: Fri, 22-Aug-2014 2:53am EDT
Fog, Overcast
Fog, Overcast
 Wind from calm
Wind: Calm
Temperature: 61°F , 16°C
Dew Point: 61°F , 16°C
Humidity: 100%
Barometer: 29.98 inHg , 1015.2 hPa
Summary: Fog
Clouds: Overcast
Visibility: 1/2 mile , 2 km
Cloud details: Overcast 200 ft
2014/08/22 06:53 KTHV 220653Z AUTO 00000KT 1/2SM FG VV002 16/16 A2998 RMK AO2 SLP152 T01610161
KFDK - Frederick, Maryland, USA
Distance from station: W 47mi, 75km
Updated: Fri, 22-Aug-2014 3:35am EDT
Clear
Clear
 Wind from S
Wind: S 3 mph , 6 km/h
Temperature: 70°F , 21°C
Dew Point: 70°F , 21°C
Humidity: 100%
Barometer: 30.00 inHg , 1015.9 hPa
Clouds: Clear
Visibility: 10 miles , 16 km
2014/08/22 07:35 KFDK 220735Z AUTO 18003KT 10SM CLR 21/21 A3000 RMK AO2 LTG DSNT E AND W
 
KESN - Easton/Newnam, Maryland, USA
Distance from station: SSE 48mi, 78km
Updated: Fri, 22-Aug-2014 3:50am EDT
Partly cloudy
Partly cloudy
 Wind from calm
Wind: Calm
Temperature: 73°F , 23°C
Dew Point: 73°F , 23°C
Humidity: 100%
Barometer: 29.99 inHg , 1015.6 hPa
Clouds: Partly cloudy
Visibility: 7 miles , 11 km
Cloud details: Partly cloudy 7500 ft
2014/08/22 07:50 KESN 220750Z AUTO 00000KT 7SM SCT075 23/23 A2999 RMK AO2 T02330233
KDCA - Washington/Natl, Washington D.c., USA
Distance from station: SW 49mi, 79km
Updated: Fri, 22-Aug-2014 2:52am EDT
Mostly cloudy
Mostly cloudy
 Wind from WNW
Wind: WNW 3 mph , 6 km/h
Temperature: 77°F , 25°C
Dew Point: 66°F , 19°C
Humidity: 69%
Barometer: 29.97 inHg , 1014.9 hPa
Clouds: Mostly cloudy
Visibility: 10 miles , 16 km
Cloud details: Few Clouds 7000 ft
Mostly cloudy 14000 ft
Mostly cloudy 25000 ft
2014/08/22 06:52 KDCA 220652Z 30003KT 10SM FEW070 BKN140 BKN250 25/19 A2997 RMK AO2 SLP149 T02500189
 
KLNS - Lancaster, Pennsylvania, USA
Distance from station: N 49mi, 79km
Updated: Fri, 22-Aug-2014 3:45am EDT
Mist, Overcast
Mist, Overcast
 Wind from calm
Wind: Calm
Temperature: 70°F , 21°C
Dew Point: 68°F , 20°C
Humidity: 94%
Barometer: 29.98 inHg , 1015.2 hPa
Summary: Mist
Clouds: Overcast
Visibility: 3 miles , 5 km
Cloud details: Partly cloudy 700 ft
Mostly cloudy 1900 ft
Overcast 2600 ft
2014/08/22 07:45 KLNS 220745Z AUTO 00000KT 3SM BR SCT007 BKN019 OVC026 21/20 A2998 RMK AO2 T02110200
KILG - Wilmington, Delaware, USA
Distance from station: ENE 50mi, 81km
Updated: Fri, 22-Aug-2014 2:51am EDT
Overcast
Overcast
 Wind from calm
Wind: Calm
Temperature: 73°F , 23°C
Dew Point: 70°F , 21°C
Humidity: 89%
Barometer: 29.97 inHg , 1014.9 hPa
Clouds: Overcast
Visibility: 10 miles , 16 km
Cloud details: Overcast 900 ft
2014/08/22 06:51 KILG 220651Z 00000KT 10SM OVC009 23/21 A2997 RMK AO2 SLP146 T02330211